SMZO/ORG METAR and TAF weather

Enter ICAO airport designator
Station Type Date Time Source
SMZO METAR 2020/12/05 00:00 UTC NOAA

SMZO 050000Z 09005KT 9999 FEW030 27/23 Q1012 NOSIG


Station Type Date Time Source
SMZO Decoded METAR 2020/12/05 00:00 UTC NOAA

Station name not available
Dec 04, 2020 - 07:00 PM EST / 2020.12.05 0000 UTC
Wind: from the E (090 degrees) at 6 MPH (5 KT):0
Visibility: greater than 7 mile(s):0
Sky conditions: mostly clear
Temperature: 80 F (27 C)
Dew Point: 73 F (23 C)
Relative Humidity: 78%
Pressure (altimeter): 29.88 in. Hg (1012 hPa)
ob: SMZO 050000Z 09005KT 9999 FEW030 27/23 Q1012 NOSIG
cycle: 0

Station Type Date Time Source
SMZO TAF 2020/12/05 06:12 UTC NOAA

TAF TAF SMZO 050400Z 0506/0606 VRB02KT CAVOK TX32/0518Z TN23/0509Z
BECMG 0511/0513 06008KT SCT020
TEMPO 0514/0518 5000 SHRA BKN018
FM051800 07010KT 9999 FEW018TCU SCT020
TEMPO 0518/0521 4000 SHRA FEW015CB BKN018
FM052200 04005KT CAVOK

Example: see airport list